Time;durP1;ratioP1;P1;durP2;ratioP2;P2;SDS_P1;SDS_P2;PMS_P1;PMS_P2;Temp;Humidity;BMP_temperature;BMP_pressure;BME280_temperature;BME280_humidity;BME280_pressure;Samples;Min_cycle;Max_cycle;Signal;HPM_P1;HPM_P2
2023/01/14 00:01:18;;;;;;;36.42;5.13;;;6.70;99.90;;;;;;5009708;28;20045;-74
2023/01/14 00:03:45;;;;;;;29.88;4.38;;;6.70;99.90;;;;;;5012472;28;20046;-73
2023/01/14 00:06:16;;;;;;;43.92;5.90;;;6.70;99.90;;;;;;5010037;28;20049;-72
2023/01/14 00:08:42;;;;;;;34.28;6.28;;;6.70;99.90;;;;;;5013849;28;20132;-72
2023/01/14 00:11:11;;;;;;;37.85;4.82;;;6.60;99.90;;;;;;5009079;28;20574;-73
2023/01/14 00:13:38;;;;;;;38.65;5.55;;;6.60;99.90;;;;;;5010144;28;20038;-73
2023/01/14 00:16:06;;;;;;;25.17;4.22;;;6.50;99.90;;;;;;5009081;28;20044;-73
2023/01/14 00:18:34;;;;;;;31.88;5.32;;;6.50;99.90;;;;;;5009500;28;20100;-73
2023/01/14 00:21:07;;;;;;;26.38;4.72;;;6.60;99.90;;;;;;5011327;28;20084;-72
2023/01/14 00:23:34;;;;;;;37.25;4.78;;;6.70;99.90;;;;;;5012836;28;20061;-73
2023/01/14 00:26:02;;;;;;;38.58;5.20;;;6.70;99.90;;;;;;5011161;28;20053;-73
2023/01/14 00:28:28;;;;;;;34.70;4.35;;;6.70;99.90;;;;;;5010474;28;20050;-73
2023/01/14 00:31:02;;;;;;;38.80;5.43;;;6.70;99.90;;;;;;4994117;28;20115;-71
2023/01/14 00:33:27;;;;;;;27.58;5.20;;;6.70;99.90;;;;;;5011334;28;20509;-72
2023/01/14 00:35:53;;;;;;;28.13;5.07;;;6.70;99.90;;;;;;5010913;28;20037;-72
2023/01/14 00:38:19;;;;;;;33.70;4.78;;;6.60;99.90;;;;;;5011988;28;20503;-73
2023/01/14 00:40:44;;;;;;;37.83;4.18;;;6.60;99.90;;;;;;5011342;28;20128;-73
2023/01/14 00:43:10;;;;;;;33.40;4.63;;;6.60;99.90;;;;;;5011578;28;20037;-73
2023/01/14 00:45:35;;;;;;;35.97;4.43;;;6.50;99.90;;;;;;5011751;28;20038;-73
2023/01/14 00:48:01;;;;;;;31.35;4.30;;;6.50;99.90;;;;;;5011687;28;20129;-72
2023/01/14 00:50:26;;;;;;;20.88;4.30;;;6.50;99.90;;;;;;5011887;28;20376;-72
2023/01/14 00:52:52;;;;;;;21.30;4.15;;;6.40;99.90;;;;;;5011586;28;20045;-73
2023/01/14 00:55:18;;;;;;;24.55;4.15;;;6.40;99.90;;;;;;5009922;28;20052;-72
2023/01/14 00:57:43;;;;;;;30.42;4.95;;;6.40;99.90;;;;;;5010309;28;20046;-73
2023/01/14 01:00:10;;;;;;;26.02;4.63;;;6.40;99.90;;;;;;5008317;28;20034;-72
2023/01/14 01:02:35;;;;;;;29.23;3.90;;;6.40;99.90;;;;;;5010497;28;20038;-72
2023/01/14 01:05:01;;;;;;;31.00;5.10;;;6.40;99.90;;;;;;5009126;28;20092;-73
2023/01/14 01:07:26;;;;;;;30.88;4.15;;;6.40;99.90;;;;;;5009912;28;20487;-72
2023/01/14 01:09:52;;;;;;;29.55;4.45;;;6.40;99.90;;;;;;5012103;28;20499;-72
2023/01/14 01:12:18;;;;;;;26.90;3.83;;;6.40;99.90;;;;;;5010363;28;20060;-72
2023/01/14 01:14:43;;;;;;;29.38;5.05;;;6.40;99.90;;;;;;5009221;28;20461;-73
2023/01/14 01:17:09;;;;;;;41.28;4.47;;;6.40;99.90;;;;;;5010158;28;20042;-73
2023/01/14 01:19:34;;;;;;;30.65;4.90;;;6.40;99.90;;;;;;5010885;28;20038;-73
2023/01/14 01:22:00;;;;;;;27.08;3.95;;;6.40;99.90;;;;;;5010719;28;20321;-73
2023/01/14 01:24:26;;;;;;;37.00;4.90;;;6.50;99.90;;;;;;5010002;28;20057;-72
2023/01/14 01:26:51;;;;;;;29.38;5.57;;;6.50;99.90;;;;;;5011455;28;20045;-73
2023/01/14 01:29:17;;;;;;;24.00;4.13;;;6.60;99.90;;;;;;5010042;28;20586;-72
2023/01/14 01:31:42;;;;;;;28.48;4.53;;;6.60;99.90;;;;;;5013832;28;20069;-73
2023/01/14 01:34:09;;;;;;;28.55;4.13;;;6.60;99.90;;;;;;5002267;28;20046;-73
2023/01/14 01:36:35;;;;;;;26.30;4.22;;;6.70;99.90;;;;;;5009423;28;20038;-73
2023/01/14 01:39:00;;;;;;;20.88;3.80;;;6.60;99.90;;;;;;5011429;28;20045;-73
2023/01/14 01:41:30;;;;;;;22.90;4.55;;;6.60;99.90;;;;;;5011606;28;20414;-73
2023/01/14 01:44:14;;;;;;;30.25;4.13;;;6.70;99.90;;;;;;5011453;28;20085;-73
2023/01/14 01:46:41;;;;;;;26.38;4.35;;;6.60;99.90;;;;;;5014166;28;20045;-73
2023/01/14 01:49:20;;;;;;;32.05;5.25;;;6.60;99.90;;;;;;5013414;28;20045;-73
2023/01/14 01:51:49;;;;;;;;;;;6.60;99.90;;;;;;5013484;28;20042;-73
2023/01/14 01:54:17;;;;;;;22.02;4.03;;;6.60;99.90;;;;;;5012788;28;19921;-73
2023/01/14 01:56:46;;;;;;;30.50;4.55;;;6.60;99.90;;;;;;5012612;28;20453;-73
2023/01/14 01:59:17;;;;;;;23.50;3.80;;;6.60;99.90;;;;;;5010764;28;20479;-71
2023/01/14 02:01:43;;;;;;;21.05;3.90;;;6.60;99.90;;;;;;5009183;28;20050;-72
2023/01/14 02:04:11;;;;;;;28.27;4.25;;;6.50;99.90;;;;;;5011495;28;20403;-72
2023/01/14 02:06:37;;;;;;;;;;;6.50;99.90;;;;;;5013606;28;20054;-72
2023/01/14 02:09:03;;;;;;;32.30;5.57;;;6.40;99.90;;;;;;5013672;28;20072;-73
2023/01/14 02:11:53;;;;;;;24.05;4.53;;;6.30;99.90;;;;;;5001482;28;20379;-72
2023/01/14 02:14:22;;;;;;;37.67;5.10;;;6.30;99.90;;;;;;5011284;28;20135;-73
2023/01/14 02:17:00;;;;;;;30.83;4.57;;;6.30;99.90;;;;;;5012623;28;20042;-72
2023/01/14 02:19:51;;;;;;;25.10;4.93;;;6.30;99.90;;;;;;5011708;28;20045;-73
2023/01/14 02:22:38;;;;;;;34.97;4.68;;;6.20;99.90;;;;;;5011925;28;20048;-72
2023/01/14 02:25:15;;;;;;;24.33;4.57;;;6.20;99.90;;;;;;5011535;28;20081;-72
2023/01/14 02:27:50;;;;;;;27.85;4.32;;;6.20;99.90;;;;;;5010752;28;20502;-73
2023/01/14 02:30:47;;;;;;;35.92;4.63;;;6.20;99.90;;;;;;5022800;28;20049;-73
2023/01/14 02:33:31;;;;;;;26.05;3.85;;;6.10;99.90;;;;;;5007642;28;20084;-73
2023/01/14 02:36:13;;;;;;;33.75;5.35;;;6.10;99.90;;;;;;5011398;28;20438;-73
2023/01/14 02:38:44;;;;;;;37.42;4.03;;;6.10;99.90;;;;;;5003755;28;20056;-73
2023/01/14 02:44:27;;;;;;;33.28;5.20;;;6.00;99.90;;;;;;5011411;28;20046;-73
2023/01/14 02:47:00;;;;;;;23.70;4.35;;;6.00;99.90;;;;;;5008593;28;20531;-73
2023/01/14 02:49:31;;;;;;;27.98;4.78;;;5.90;99.90;;;;;;5009635;28;20081;-73
2023/01/14 02:51:57;;;;;;;25.88;4.30;;;5.90;99.90;;;;;;5011079;28;20041;-72
2023/01/14 02:54:23;;;;;;;35.13;4.82;;;5.90;99.90;;;;;;5012517;28;20053;-73
2023/01/14 02:56:50;;;;;;;25.70;4.82;;;5.80;99.90;;;;;;5009404;28;20049;-73
2023/01/14 02:59:18;;;;;;;31.40;4.72;;;5.80;99.90;;;;;;5010847;28;20038;-73
2023/01/14 03:01:57;;;;;;;26.63;4.00;;;5.80;99.90;;;;;;5017495;28;20376;-72
2023/01/14 03:04:34;;;;;;;27.77;4.28;;;5.80;99.90;;;;;;5021219;28;20044;-73
2023/01/14 03:07:30;;;;;;;30.52;5.05;;;5.90;99.90;;;;;;5006164;28;20045;-73
2023/01/14 03:10:03;;;;;;;32.08;4.78;;;5.90;99.90;;;;;;5011136;28;20053;-73
2023/01/14 03:12:49;;;;;;;33.65;5.03;;;5.90;99.90;;;;;;5007996;28;20033;-73
2023/01/14 03:15:31;;;;;;;27.42;5.35;;;5.80;99.90;;;;;;5010017;28;20132;-73
2023/01/14 03:18:08;;;;;;;29.58;4.45;;;6.00;99.90;;;;;;5011152;28;20046;-73
2023/01/14 03:20:38;;;;;;;27.08;4.00;;;5.90;99.90;;;;;;5010599;28;20111;-73
2023/01/14 03:23:12;;;;;;;34.10;4.05;;;5.90;99.90;;;;;;5010157;28;20073;-72
2023/01/14 03:25:44;;;;;;;38.17;4.68;;;5.80;99.90;;;;;;5003792;28;20440;-72
2023/01/14 03:28:16;;;;;;;23.20;4.40;;;5.90;99.90;;;;;;5011792;28;20041;-72
2023/01/14 03:30:47;;;;;;;25.15;4.20;;;5.70;99.90;;;;;;5012335;28;20042;-72
2023/01/14 03:33:21;;;;;;;28.67;4.55;;;5.80;99.90;;;;;;5011620;28;20356;-72
2023/01/14 03:35:49;;;;;;;25.60;4.63;;;5.70;99.90;;;;;;5009396;28;20041;-72
2023/01/14 03:38:22;;;;;;;38.13;5.05;;;5.70;99.90;;;;;;5010930;28;20116;-71
2023/01/14 03:40:50;;;;;;;36.63;4.90;;;5.70;99.90;;;;;;5004633;28;20073;-72
2023/01/14 03:43:23;;;;;;;23.17;4.50;;;5.60;99.90;;;;;;4994229;28;20057;-72
2023/01/14 03:45:49;;;;;;;31.63;4.55;;;5.60;99.90;;;;;;5008413;28;20084;-72
2023/01/14 03:48:16;;;;;;;26.80;4.22;;;5.60;99.90;;;;;;5011467;28;20045;-72
2023/01/14 03:50:44;;;;;;;36.38;5.22;;;5.50;99.90;;;;;;5010078;28;20042;-71
2023/01/14 03:53:12;;;;;;;;;;;5.50;99.90;;;;;;5009070;28;20081;-72
2023/01/14 03:55:56;;;;;;;29.98;4.38;;;5.40;99.90;;;;;;5009586;28;19928;-72
2023/01/14 03:58:34;;;;;;;39.08;5.72;;;5.40;99.90;;;;;;5010844;28;20049;-72
2023/01/14 04:01:22;;;;;;;26.65;5.18;;;5.40;99.90;;;;;;5007917;28;20046;-72
2023/01/14 04:03:48;;;;;;;27.63;4.07;;;5.30;99.90;;;;;;5011366;28;20045;-72
2023/01/14 04:06:14;;;;;;;33.97;4.57;;;5.30;99.90;;;;;;5008737;28;20081;-71
2023/01/14 04:08:40;;;;;;;36.28;5.72;;;5.30;99.90;;;;;;5009721;28;20127;-72
2023/01/14 04:11:08;;;;;;;31.70;5.53;;;5.30;99.90;;;;;;5009891;28;20483;-72
2023/01/14 04:16:17;;;;;;;34.97;4.93;;;5.30;99.90;;;;;;5009311;28;20088;-72
2023/01/14 04:18:43;;;;;;;28.85;4.70;;;5.20;99.90;;;;;;5009670;28;20077;-72
2023/01/14 04:21:08;;;;;;;28.52;4.10;;;5.20;99.90;;;;;;5009936;28;20045;-72
2023/01/14 04:23:34;;;;;;;29.63;4.10;;;5.20;99.90;;;;;;5008688;28;20038;-73
2023/01/14 04:26:00;;;;;;;22.88;4.13;;;5.10;99.90;;;;;;5009662;28;20124;-73
2023/01/14 04:28:27;;;;;;;36.13;5.03;;;5.20;99.90;;;;;;5012489;28;20119;-73
2023/01/14 04:30:53;;;;;;;25.85;3.58;;;5.20;99.90;;;;;;5008253;28;20041;-74
2023/01/14 04:33:19;;;;;;;32.75;4.28;;;5.10;99.90;;;;;;5018376;28;20045;-73
2023/01/14 04:35:46;;;;;;;29.30;3.95;;;5.10;99.90;;;;;;5014843;28;20484;-73
2023/01/14 04:38:12;;;;;;;24.45;3.92;;;5.10;99.90;;;;;;5010101;28;20037;-72
2023/01/14 04:40:37;;;;;;;29.00;5.18;;;5.10;99.90;;;;;;5007893;28;20435;-74
2023/01/14 04:43:03;;;;;;;31.35;3.85;;;5.00;99.90;;;;;;5011296;28;20121;-73
2023/01/14 04:45:28;;;;;;;30.42;3.95;;;5.10;99.90;;;;;;5008721;28;20390;-73
2023/01/14 04:47:54;;;;;;;28.35;3.70;;;5.00;99.90;;;;;;5012393;28;20050;-73
2023/01/14 04:50:33;;;;;;;31.30;4.43;;;5.10;99.90;;;;;;5010176;28;20049;-73
2023/01/14 04:53:09;;;;;;;;;;;5.00;99.90;;;;;;5011757;28;20052;-73
2023/01/14 04:55:39;;;;;;;39.05;5.78;;;5.00;99.90;;;;;;5009683;28;19929;-72
2023/01/14 04:58:07;;;;;;;31.23;5.07;;;5.00;99.90;;;;;;5012196;28;20042;-73
2023/01/14 05:00:33;;;;;;;23.23;3.78;;;5.00;99.90;;;;;;5010444;28;20069;-73
2023/01/14 05:03:01;;;;;;;25.23;3.72;;;5.00;99.90;;;;;;5012203;28;20065;-73
2023/01/14 05:05:27;;;;;;;31.02;3.95;;;5.00;99.90;;;;;;5010873;28;20108;-72
2023/01/14 05:07:53;;;;;;;21.42;3.80;;;4.90;99.90;;;;;;5012172;28;20049;-74
2023/01/14 05:10:18;;;;;;;39.97;4.22;;;4.90;99.90;;;;;;5009644;28;20046;-72
2023/01/14 05:12:55;;;;;;;37.25;4.03;;;4.90;99.90;;;;;;5011354;28;20069;-72
2023/01/14 05:15:23;;;;;;;29.65;3.45;;;4.90;99.90;;;;;;5013191;28;20034;-72
2023/01/14 05:17:49;;;;;;;19.73;3.40;;;4.90;99.90;;;;;;5013481;28;20092;-72
2023/01/14 05:20:15;;;;;;;27.95;4.38;;;4.90;99.90;;;;;;5013588;28;20037;-72
2023/01/14 05:22:41;;;;;;;41.45;5.05;;;5.00;99.90;;;;;;5013868;28;20042;-74
2023/01/14 05:25:07;;;;;;;28.90;3.50;;;5.00;99.90;;;;;;5012888;28;20195;-73
2023/01/14 05:27:33;;;;;;;23.65;3.63;;;4.90;99.90;;;;;;5014026;28;20038;-73
2023/01/14 05:30:00;;;;;;;26.30;3.75;;;4.90;99.90;;;;;;5027783;28;20425;-73
2023/01/14 05:32:25;;;;;;;29.50;3.70;;;4.90;99.90;;;;;;5015476;28;20425;-73
2023/01/14 05:34:51;;;;;;;37.63;4.55;;;4.90;99.90;;;;;;5015820;28;20039;-73
2023/01/14 05:37:17;;;;;;;25.58;3.65;;;4.90;99.90;;;;;;5015329;28;20573;-73
2023/01/14 05:39:43;;;;;;;27.98;4.15;;;4.90;99.90;;;;;;5014270;28;20340;-72
2023/01/14 05:47:37;;;;;;;24.13;3.90;;;4.90;99.90;;;;;;5017246;28;20061;-73
2023/01/14 05:50:03;;;;;;;17.75;3.90;;;4.90;99.90;;;;;;5015411;28;20057;-73
2023/01/14 05:52:28;;;;;;;39.22;5.05;;;4.90;99.90;;;;;;5013457;28;20465;-73
2023/01/14 05:54:54;;;;;;;34.08;4.50;;;5.00;99.90;;;;;;5014397;28;20065;-72
2023/01/14 05:57:19;;;;;;;35.58;4.55;;;5.00;99.90;;;;;;5010274;28;20042;-74
2023/01/14 05:59:45;;;;;;;28.70;4.85;;;5.00;99.90;;;;;;5011957;28;20045;-72
2023/01/14 06:07:39;;;;;;;28.70;4.45;;;5.10;99.90;;;;;;4998716;28;20053;-72
2023/01/14 06:10:05;;;;;;;25.67;4.10;;;5.00;99.90;;;;;;5008388;28;20097;-72
2023/01/14 06:12:57;;;;;;;26.98;4.57;;;5.00;99.90;;;;;;5011524;28;20034;-71
2023/01/14 06:15:19;;;;;;;27.77;4.10;;;5.10;99.90;;;;;;5001684;28;20050;-73
2023/01/14 06:17:56;;;;;;;41.97;5.57;;;5.10;99.90;;;;;;5013179;28;20107;-72
2023/01/14 06:20:22;;;;;;;27.08;4.68;;;5.20;99.90;;;;;;5007165;28;20046;-72
2023/01/14 06:22:47;;;;;;;29.70;5.30;;;5.10;99.90;;;;;;5013024;28;20087;-72
2023/01/14 06:25:13;;;;;;;41.67;5.50;;;5.10;99.90;;;;;;5010184;28;20440;-73
2023/01/14 06:27:39;;;;;;;30.08;4.95;;;5.10;99.90;;;;;;5009001;28;20045;-72
2023/01/14 06:30:05;;;;;;;29.58;4.80;;;5.30;99.90;;;;;;5012377;28;20038;-72
2023/01/14 06:32:33;;;;;;;29.88;4.97;;;5.10;99.90;;;;;;5008248;28;20089;-73
2023/01/14 06:34:59;;;;;;;34.53;4.80;;;5.10;99.90;;;;;;5007761;28;20034;-72
2023/01/14 06:37:26;;;;;;;37.60;4.97;;;5.10;99.90;;;;;;5012093;28;20045;-73
2023/01/14 06:39:51;;;;;;;32.03;5.05;;;5.10;99.90;;;;;;5012394;28;20371;-71
2023/01/14 06:42:17;;;;;;;30.73;4.90;;;5.10;99.90;;;;;;5009843;28;20124;-71
2023/01/14 06:44:42;;;;;;;41.38;6.15;;;5.10;99.90;;;;;;5012428;28;20034;-72
2023/01/14 06:47:08;;;;;;;38.30;6.93;;;5.10;99.90;;;;;;5010095;28;20038;-72
2023/01/14 06:49:34;;;;;;;44.25;6.85;;;5.10;99.90;;;;;;5003249;28;20046;-72
2023/01/14 06:52:00;;;;;;;34.33;6.20;;;5.10;99.90;;;;;;5011239;28;20050;-71
2023/01/14 06:54:25;;;;;;;48.20;7.22;;;5.10;99.90;;;;;;5011075;28;20514;-73
2023/01/14 06:56:51;;;;;;;36.60;7.63;;;5.20;99.90;;;;;;4995110;28;20133;-72
2023/01/14 06:59:17;;;;;;;36.38;6.30;;;5.20;99.90;;;;;;5012704;28;20124;-73
2023/01/14 07:01:42;;;;;;;42.53;7.32;;;5.20;99.90;;;;;;5011405;28;20046;-71
2023/01/14 07:04:08;;;;;;;49.17;7.75;;;5.10;99.90;;;;;;5011837;28;20548;-71
2023/01/14 07:06:33;;;;;;;43.70;8.48;;;5.10;99.90;;;;;;5008426;28;20049;-72
2023/01/14 07:08:59;;;;;;;37.08;7.68;;;5.10;99.90;;;;;;5020441;28;20049;-73
2023/01/14 07:11:25;;;;;;;37.20;7.93;;;5.10;99.90;;;;;;5009273;28;20511;-72
2023/01/14 07:13:50;;;;;;;44.22;7.78;;;5.10;99.90;;;;;;4993080;28;20038;-72
2023/01/14 07:16:16;;;;;;;48.05;9.20;;;5.10;99.90;;;;;;5003967;28;20129;-72
2023/01/14 07:18:42;;;;;;;40.03;8.55;;;5.10;99.90;;;;;;5011650;28;20053;-72
2023/01/14 07:21:07;;;;;;;47.83;8.55;;;5.10;99.90;;;;;;5010833;28;20069;-72
2023/01/14 07:23:33;;;;;;;48.80;8.50;;;5.20;99.90;;;;;;5010638;28;20104;-72
2023/01/14 07:25:58;;;;;;;40.95;8.43;;;5.20;99.90;;;;;;5008254;28;20038;-72
2023/01/14 07:28:26;;;;;;;46.47;8.13;;;5.20;99.90;;;;;;4994987;28;20460;-72
2023/01/14 07:30:52;;;;;;;31.13;7.28;;;5.20;99.90;;;;;;5019942;28;20041;-72
2023/01/14 07:33:20;;;;;;;43.67;7.65;;;5.20;99.90;;;;;;5019900;28;20285;-72
2023/01/14 07:35:51;;;;;;;52.43;7.57;;;5.30;99.90;;;;;;5018112;28;20125;-73
2023/01/14 07:38:16;;;;;;;43.28;8.77;;;5.30;99.90;;;;;;5014656;28;20054;-73
2023/01/14 07:40:42;;;;;;;42.03;7.75;;;5.30;99.90;;;;;;5012617;28;20076;-73
2023/01/14 07:43:08;;;;;;;40.28;8.32;;;5.30;99.90;;;;;;5011148;28;20056;-73
2023/01/14 07:45:34;;;;;;;41.30;7.32;;;5.30;99.90;;;;;;5009463;28;20050;-73
2023/01/14 07:47:59;;;;;;;53.00;8.77;;;5.40;99.90;;;;;;5009682;28;20487;-73
2023/01/14 07:50:25;;;;;;;37.00;7.85;;;5.40;99.90;;;;;;5011036;28;20068;-73
2023/01/14 07:52:56;;;;;;;40.00;6.80;;;5.40;99.90;;;;;;5011821;28;20034;-73
2023/01/14 07:55:22;;;;;;;51.60;9.02;;;5.40;99.90;;;;;;5008713;28;20399;-73
2023/01/14 07:57:48;;;;;;;45.97;7.65;;;5.40;99.90;;;;;;5010806;28;20046;-73
2023/01/14 08:00:14;;;;;;;45.88;9.13;;;5.50;99.90;;;;;;5008308;28;20034;-73
2023/01/14 08:02:40;;;;;;;44.78;7.70;;;5.50;99.90;;;;;;5010364;28;20479;-73
2023/01/14 08:05:06;;;;;;;39.88;6.43;;;5.50;99.90;;;;;;5009498;28;20045;-73
2023/01/14 08:07:32;;;;;;;43.13;6.68;;;5.50;99.90;;;;;;5010654;28;20053;-73
2023/01/14 08:09:57;;;;;;;42.05;7.43;;;5.50;99.90;;;;;;5009965;28;20046;-73
2023/01/14 08:12:23;;;;;;;44.35;7.68;;;5.60;99.90;;;;;;5011074;28;20038;-73
2023/01/14 08:14:49;;;;;;;41.97;6.72;;;5.60;99.90;;;;;;5010024;28;20042;-73
2023/01/14 08:17:15;;;;;;;46.03;7.30;;;5.60;99.90;;;;;;5008618;28;20041;-73
2023/01/14 08:19:41;;;;;;;50.22;7.60;;;5.60;99.90;;;;;;5008386;28;20459;-73
2023/01/14 08:22:06;;;;;;;43.33;7.35;;;5.60;99.90;;;;;;5005216;28;20156;-73
2023/01/14 08:24:32;;;;;;;45.08;7.25;;;5.70;99.90;;;;;;5009518;28;20392;-73
2023/01/14 08:26:57;;;;;;;52.47;8.25;;;5.70;99.90;;;;;;5009228;28;20476;-72
2023/01/14 08:29:23;;;;;;;34.15;7.50;;;5.70;99.90;;;;;;5009554;28;20048;-73
2023/01/14 08:31:56;;;;;;;49.08;6.97;;;5.70;99.90;;;;;;5008630;28;20125;-72
2023/01/14 08:34:23;;;;;;;43.15;6.88;;;5.70;99.90;;;;;;5010792;28;20200;-72
2023/01/14 08:36:49;;;;;;;42.45;7.40;;;5.80;99.90;;;;;;5010056;28;20046;-73
2023/01/14 08:39:16;;;;;;;43.05;7.68;;;5.70;99.90;;;;;;5016517;28;20046;-73
2023/01/14 08:41:42;;;;;;;50.30;8.40;;;5.70;99.90;;;;;;5010507;28;20046;-73
2023/01/14 08:44:09;;;;;;;37.75;8.32;;;5.70;99.90;;;;;;5012939;28;20054;-73
2023/01/14 08:46:35;;;;;;;36.15;7.63;;;5.80;99.90;;;;;;5011875;28;20442;-72
2023/01/14 08:49:00;;;;;;;33.55;6.90;;;5.70;99.90;;;;;;5016408;28;20056;-73
2023/01/14 08:51:28;;;;;;;39.47;7.45;;;5.80;99.90;;;;;;5013874;28;20506;-72
2023/01/14 08:54:00;;;;;;;45.58;7.70;;;5.70;99.90;;;;;;5020695;28;20046;-73
2023/01/14 08:56:26;;;;;;;47.33;8.30;;;5.80;99.90;;;;;;5023757;28;20076;-73
2023/01/14 08:58:52;;;;;;;40.50;6.32;;;5.70;99.90;;;;;;5015913;28;20046;-73
2023/01/14 09:01:18;;;;;;;41.92;7.70;;;5.80;99.90;;;;;;5014168;28;20121;-73
2023/01/14 09:03:45;;;;;;;37.97;7.28;;;5.80;99.90;;;;;;5018746;28;20082;-72
2023/01/14 09:06:14;;;;;;;43.72;6.82;;;5.70;99.90;;;;;;5017414;28;20058;-72
2023/01/14 09:17:08;;;;;;;41.90;6.80;;;5.70;99.90;;;;;;5010012;28;20046;-75
2023/01/14 09:19:40;;;;;;;33.28;6.45;;;5.70;99.90;;;;;;5014056;28;20038;-74
2023/01/14 09:22:08;;;;;;;38.08;6.55;;;5.70;99.90;;;;;;5013735;28;20042;-75
2023/01/14 09:24:33;;;;;;;34.13;6.25;;;5.70;99.90;;;;;;5012973;28;20050;-72
2023/01/14 09:26:59;;;;;;;38.65;5.65;;;5.70;99.90;;;;;;5006082;28;20430;-73
2023/01/14 09:29:24;;;;;;;39.45;7.00;;;5.80;99.90;;;;;;5010405;28;20046;-74
2023/01/14 09:31:50;;;;;;;40.05;6.55;;;5.90;99.90;;;;;;5011618;28;20038;-73
2023/01/14 09:34:16;;;;;;;42.63;6.32;;;5.70;99.90;;;;;;5009486;28;20042;-75
2023/01/14 09:36:41;;;;;;;31.98;6.30;;;5.70;99.90;;;;;;5006571;28;20133;-75
2023/01/14 09:39:07;;;;;;;35.95;5.65;;;5.70;99.90;;;;;;5011341;28;20383;-74
2023/01/14 09:41:36;;;;;;;37.53;6.03;;;5.70;99.90;;;;;;5007282;28;20274;-75
2023/01/14 09:44:04;;;;;;;43.70;6.18;;;5.70;99.90;;;;;;5003537;28;20074;-76
2023/01/14 09:46:31;;;;;;;32.15;5.63;;;5.70;99.90;;;;;;5006582;28;20046;-74
2023/01/14 09:49:01;;;;;;;45.55;5.97;;;5.70;99.90;;;;;;5005667;28;20434;-73
2023/01/14 09:51:41;;;;;;;36.10;5.55;;;5.70;99.90;;;;;;5008132;28;20065;-73
2023/01/14 09:54:21;;;;;;;37.40;5.75;;;5.70;99.90;;;;;;5009489;28;20037;-73
2023/01/14 09:56:59;;;;;;;29.40;5.60;;;5.70;99.90;;;;;;5009378;28;20378;-73
2023/01/14 09:59:44;;;;;;;28.17;5.15;;;5.70;99.90;;;;;;5006455;28;20129;-73
2023/01/14 10:02:23;;;;;;;32.50;5.50;;;5.80;99.90;;;;;;5006544;28;20050;-73
2023/01/14 10:05:14;;;;;;;29.35;5.88;;;5.70;99.90;;;;;;5005298;28;20120;-73
2023/01/14 10:07:41;;;;;;;16.60;4.80;;;5.80;99.90;;;;;;5012273;28;20622;-74
2023/01/14 10:10:16;;;;;;;23.73;4.80;;;5.80;99.90;;;;;;5011646;28;20395;-74
2023/01/14 10:12:44;;;;;;;21.25;4.28;;;5.80;99.90;;;;;;5011276;28;20061;-75
2023/01/14 10:15:18;;;;;;;21.80;4.88;;;5.80;99.90;;;;;;5010539;28;20080;-74
2023/01/14 10:17:55;;;;;;;23.30;4.53;;;5.80;99.90;;;;;;5015966;28;20652;-75
2023/01/14 10:20:37;;;;;;;21.80;4.95;;;5.80;99.90;;;;;;5019777;28;20056;-74
2023/01/14 10:23:15;;;;;;;20.02;4.55;;;5.90;99.90;;;;;;5020416;28;20113;-75
2023/01/14 10:25:49;;;;;;;18.77;4.20;;;5.80;99.90;;;;;;5009525;28;20057;-73
2023/01/14 10:28:20;;;;;;;16.45;4.20;;;5.90;99.90;;;;;;5009112;28;20053;-73
2023/01/14 10:30:47;;;;;;;19.63;4.28;;;5.90;99.90;;;;;;5007209;28;20657;-73
2023/01/14 10:33:15;;;;;;;21.40;4.45;;;5.90;99.90;;;;;;5004047;28;20042;-73
2023/01/14 10:35:48;;;;;;;19.88;3.40;;;5.90;99.90;;;;;;5006678;28;20418;-73
2023/01/14 10:38:22;;;;;;;15.55;3.70;;;6.00;99.90;;;;;;5008682;28;20050;-73
2023/01/14 10:40:49;;;;;;;23.40;3.90;;;6.10;99.90;;;;;;4997664;28;20375;-74
2023/01/14 10:43:23;;;;;;;14.77;3.72;;;6.00;99.90;;;;;;5028452;28;20048;-74
2023/01/14 10:45:48;;;;;;;10.73;2.88;;;6.10;99.90;;;;;;5006274;28;20041;-73
2023/01/14 10:48:19;;;;;;;13.77;2.78;;;6.10;99.90;;;;;;5005167;28;20044;-73
2023/01/14 10:50:45;;;;;;;16.45;2.92;;;6.20;99.90;;;;;;5010900;28;20042;-74
2023/01/14 10:53:20;;;;;;;13.95;3.45;;;6.20;99.90;;;;;;5009342;28;20053;-74
2023/01/14 10:55:50;;;;;;;12.70;3.92;;;6.20;99.90;;;;;;5006223;28;20057;-73
2023/01/14 10:58:24;;;;;;;12.00;2.70;;;6.20;99.90;;;;;;5010735;28;20133;-73
2023/01/14 11:00:51;;;;;;;16.67;3.22;;;6.30;99.90;;;;;;5003960;28;20455;-73
2023/01/14 11:03:27;;;;;;;11.55;2.90;;;6.30;99.90;;;;;;4999932;28;20119;-72
2023/01/14 11:06:14;;;;;;;8.00;2.90;;;6.40;99.90;;;;;;5010390;28;20088;-73
2023/01/14 11:08:46;;;;;;;8.13;3.17;;;6.40;99.90;;;;;;5010474;28;20518;-73
2023/01/14 11:11:25;;;;;;;14.48;2.85;;;6.40;99.90;;;;;;5011564;28;20052;-73
2023/01/14 11:13:53;;;;;;;6.72;2.83;;;6.50;99.90;;;;;;5006659;28;20045;-72
2023/01/14 11:16:24;;;;;;;11.50;2.88;;;6.50;99.90;;;;;;5009269;28;20042;-73
2023/01/14 11:18:53;;;;;;;9.88;2.92;;;6.70;99.90;;;;;;4991117;28;20127;-73
2023/01/14 11:21:21;;;;;;;11.55;2.70;;;6.50;99.90;;;;;;5011291;28;20652;-73
2023/01/14 11:23:59;;;;;;;8.30;2.60;;;6.50;99.90;;;;;;5010061;28;20092;-73
2023/01/14 11:26:29;;;;;;;14.07;3.20;;;6.50;99.90;;;;;;5006040;28;20046;-72
2023/01/14 11:29:22;;;;;;;12.27;3.00;;;6.50;99.90;;;;;;5008949;28;20552;-73
2023/01/14 11:31:50;;;;;;;11.32;3.03;;;6.60;99.90;;;;;;5003076;28;20391;-73
2023/01/14 11:34:38;;;;;;;13.48;3.00;;;6.60;99.90;;;;;;5010528;28;20054;-73
2023/01/14 11:37:16;;;;;;;10.02;3.00;;;6.60;99.90;;;;;;5008717;28;20045;-73
2023/01/14 11:39:51;;;;;;;9.75;3.00;;;6.60;99.90;;;;;;5009619;28;20392;-73
2023/01/14 11:42:29;;;;;;;9.90;3.60;;;6.60;99.90;;;;;;5007952;28;20058;-73
2023/01/14 11:45:11;;;;;;;13.02;3.53;;;6.60;99.90;;;;;;5007761;28;20057;-73
2023/01/14 11:47:48;;;;;;;12.27;3.40;;;6.60;99.90;;;;;;5009807;28;20042;-72
2023/01/14 11:50:20;;;;;;;9.85;2.97;;;6.60;99.90;;;;;;5011571;28;20077;-73
2023/01/14 11:53:04;;;;;;;9.70;3.00;;;6.60;99.90;;;;;;5015369;28;20125;-73
2023/01/14 11:55:36;;;;;;;12.75;3.50;;;6.60;99.90;;;;;;5009997;28;20042;-73
2023/01/14 11:58:17;;;;;;;13.63;4.07;;;6.60;99.90;;;;;;5009984;28;20046;-73
2023/01/14 12:00:48;;;;;;;15.38;3.70;;;6.60;99.90;;;;;;5008220;28;20050;-73
2023/01/14 12:03:53;;;;;;;12.52;3.58;;;6.60;99.90;;;;;;5009517;28;20054;-73
2023/01/14 12:06:26;;;;;;;11.73;3.45;;;6.60;99.90;;;;;;4986440;28;20096;-73
2023/01/14 12:09:00;;;;;;;8.27;3.33;;;6.70;99.90;;;;;;5022305;28;20042;-74
2023/01/14 12:11:39;;;;;;;10.13;3.60;;;6.70;99.90;;;;;;5005150;28;20038;-74
2023/01/14 12:17:14;;;;;;;11.85;3.40;;;6.70;99.90;;;;;;5009115;28;19928;-73
2023/01/14 12:19:45;;;;;;;12.35;3.47;;;6.70;99.90;;;;;;5011163;28;20053;-73
2023/01/14 12:22:17;;;;;;;12.43;3.90;;;6.70;99.90;;;;;;5011026;28;20078;-73
2023/01/14 12:25:04;;;;;;;12.25;4.28;;;6.70;99.90;;;;;;5008856;28;20117;-73
2023/01/14 12:27:44;;;;;;;10.88;3.67;;;6.70;99.90;;;;;;5009676;28;20046;-73
2023/01/14 12:30:32;;;;;;;10.40;3.45;;;6.80;99.90;;;;;;5008404;28;20045;-72
2023/01/14 12:33:17;;;;;;;10.07;3.08;;;6.80;99.90;;;;;;5006482;28;20046;-73
2023/01/14 12:35:48;;;;;;;9.68;3.13;;;6.90;99.90;;;;;;5006307;28;20407;-73
2023/01/14 12:46:48;;;;;;;5.97;2.80;;;6.90;99.90;;;;;;5002183;28;20053;-67
2023/01/14 12:49:14;;;;;;;11.18;3.22;;;7.00;99.90;;;;;;5006127;28;20105;-68
2023/01/14 12:51:41;;;;;;;9.57;3.10;;;7.00;99.90;;;;;;5008368;28;20383;-69
2023/01/14 12:54:19;;;;;;;6.03;3.20;;;7.00;99.90;;;;;;5012917;28;20124;-68
2023/01/14 12:56:56;;;;;;;10.20;3.30;;;7.00;99.90;;;;;;5001606;28;20049;-65
2023/01/14 12:59:43;;;;;;;7.85;3.10;;;7.10;99.90;;;;;;5006409;28;20095;-67
2023/01/14 13:02:35;;;;;;;11.48;3.70;;;7.10;99.90;;;;;;5005518;28;20038;-68
2023/01/14 13:05:30;;;;;;;10.15;2.80;;;7.10;99.90;;;;;;5017602;28;20056;-68
2023/01/14 13:08:02;;;;;;;9.07;3.60;;;7.20;99.90;;;;;;5007451;28;20510;-68
2023/01/14 13:10:37;;;;;;;11.68;3.63;;;7.30;99.90;;;;;;5014119;28;20120;-67
2023/01/14 13:13:05;;;;;;;7.20;2.65;;;7.30;99.90;;;;;;5012864;28;20042;-67
2023/01/14 13:15:34;;;;;;;7.60;3.03;;;7.30;99.90;;;;;;5011739;28;20117;-68
2023/01/14 13:18:02;;;;;;;9.45;3.45;;;7.30;99.90;;;;;;5008402;28;20042;-67
2023/01/14 13:20:37;;;;;;;9.30;2.92;;;7.40;99.90;;;;;;5007044;28;20065;-67
2023/01/14 13:23:08;;;;;;;6.95;3.10;;;7.40;99.90;;;;;;5010719;28;20145;-66
2023/01/14 13:25:46;;;;;;;8.00;2.85;;;7.50;99.90;;;;;;5004282;28;20045;-67
2023/01/14 13:28:12;;;;;;;6.85;2.70;;;7.50;99.90;;;;;;5000034;28;20485;-67
2023/01/14 13:30:58;;;;;;;10.35;2.92;;;7.60;99.90;;;;;;5009819;28;20056;-67
2023/01/14 13:33:30;;;;;;;6.95;2.50;;;7.60;99.90;;;;;;5012097;28;20073;-67
2023/01/14 13:36:09;;;;;;;6.57;2.70;;;7.70;99.90;;;;;;5015492;28;20125;-67
2023/01/14 13:38:39;;;;;;;6.72;2.47;;;7.70;99.90;;;;;;5011231;28;20372;-67
2023/01/14 13:41:06;;;;;;;7.63;2.38;;;7.80;99.90;;;;;;5012988;28;20042;-67